Airfield :
LOGIN :

Register | Disclaimer

   EN    FR    IT 

 










Legend :    VFR   Marginal VFR   IFR   Intensive IFR   Very Intensive IFR
Visi :
Ceiling :
>= 8 km
>= 3000ft
5 to 8 km
1000 to 3000 ft
1500m to 5 km
500 to 1000 ft
800 to 1500m
200 to 500 ft
< 800m
< 200 ft
Symbols :   Thunderstorms  Fog  Heavy snow  Heavy precipitations  Wind > 20 kt
SIGMETs :     Misc.  Thunderstorms  Icing  Turbulence  Mountain Waves  Volcanic Ashes






- Airport Elevation : 751 ft
- IATA code : ENC


LFSN - Nancy Essey

CURRENT METAR :
  • 270630Z AUTO 18011KT 8000 RA BKN010/// BKN017/// BKN028/// ///TCU 09/08 Q0997

EXPIRED METARs :
  • 270600Z AUTO 19014KT 5000 RA BR FEW012/// SCT020/// BKN031/// ///TCU 09/08 Q0997
  • 270530Z AUTO 20013KT 9999 RA SCT012/// BKN030/// BKN035/// ///TCU 09/08 Q0998
  • 270500Z AUTO 19011KT 160V220 8000 -RA FEW009/// BKN014/// BKN032/// ///TCU 09/08 Q0998
  • 270430Z AUTO 20008KT 170V230 9999 RA BKN013/// BKN023/// OVC043/// ///TCU 09/08 Q0998
  • 270400Z AUTO 19007KT 9000 RA BKN013/// BKN027/// BKN039/// ///TCU 09/08 Q0999

Expired Forecast.



MET'MAP, your aeronautical weather chart ! - Copyright ORBIFLY December 2007 - Disclaimer

ORBIFLY MET'MAP TEAM :

Programming & Development : Alexandra Zaïnal
Concept & original design : Baudouin d'Aumeries
Assistance for programming : Marc-Olivier Méhu
Technical & hardware support : Manuel Goepfert

Contact : metmap@orbifly.com




SOURCES & CREDITS :

   NOAA